• Join FlightAware (Why Join?)
  • Login
  • US Flag 
Rudolph Flight #1: Arrived! 
10:05PM EST


 

Airport Tracker/Info


-or-


 

Live Flight TrackerFlight Track Log ✈ CCA4121 ✈ 19-Jul-2014 ✈ ZUJZ / JZH - ZBAA / PEK

Flight Track Log - Related Links

Times and Time Zones

All times are in EDT time to prevent confusion due to time zone crossing. See the CCA4121 flight status page for this flight to view local times or setup timezone preferences in your user account.

Time Position Orientation Groundspeed Altitude Reporting Facility
EDT Latitude Longitude Course Direction KTS MPH feet Rate Location/Type
07:12AM 33.1043 104.0540 51° Northeast  Level Estimated
07:13AM 33.1659 104.1471 52° Northeast  Level Estimated
07:14AM 33.2275 104.2404 52° Northeast  Level Estimated
07:15AM 33.2890 104.3337 52° Northeast  Level Estimated
07:16AM 33.3504 104.4272 52° Northeast  Level Estimated
07:17AM 33.4118 104.5208 52° Northeast  Level Estimated
07:18AM 33.4731 104.6146 52° Northeast  Level Estimated
07:19AM 33.5344 104.7084 52° Northeast  Level Estimated
07:20AM 33.5955 104.8025 52° Northeast  Level Estimated
07:21AM 33.6566 104.8966 52° Northeast  Level Estimated
07:22AM 33.7176 104.9909 52° Northeast  Level Estimated
07:23AM 33.7785 105.0853 52° Northeast  Level Estimated
07:24AM 33.8394 105.1798 52° Northeast  Level Estimated
07:25AM 33.9002 105.2745 52° Northeast  Level Estimated
07:26AM 33.9609 105.3693 52° Northeast  Level Estimated
07:27AM 34.0216 105.4643 52° Northeast  Level Estimated
07:28AM 34.0822 105.5594 52° Northeast  Level Estimated
07:29AM 34.1427 105.6546 52° Northeast  Level Estimated
07:30AM 34.2031 105.7500 53° Northeast  Level Estimated
07:31AM 34.2635 105.8455 53° Northeast  Level Estimated
07:32AM 34.3237 105.9411 53° Northeast  Level Estimated
07:33AM 34.3840 106.0369 53° Northeast  Level Estimated
07:34AM 34.4441 106.1328 53° Northeast  Level Estimated
07:35AM 34.5042 106.2288 53° Northeast  Level Estimated
07:36AM 34.5641 106.3250 53° Northeast  Level Estimated
07:37AM 34.6241 106.4213 53° Northeast  Level Estimated
07:38AM 34.6839 106.5178 53° Northeast  Level Estimated
07:39AM 34.7436 106.6144 53° Northeast  Level Estimated
07:40AM 34.8033 106.7112 53° Northeast  Level Estimated
07:41AM 34.8629 106.8081 53° Northeast  Level Estimated
07:42AM 34.9225 106.9051 53° Northeast  Level Estimated
07:43AM 34.9819 107.0022 53° Northeast  Level Estimated
07:44AM 35.0413 107.0995 53° Northeast  Level Estimated
07:45AM 35.1006 107.1970 53° Northeast  Level Estimated
07:46AM 35.1598 107.2946 53° Northeast  Level Estimated
07:47AM 35.2189 107.3923 53° Northeast  Level Estimated
07:48AM 35.2780 107.4902 54° Northeast  Level Estimated
07:49AM 35.3370 107.5882 54° Northeast  Level Estimated
07:50AM 35.3959 107.6864 54° Northeast  Level Estimated
07:51AM 35.4547 107.7847 54° Northeast  Level Estimated
07:52AM 35.5134 107.8831 54° Northeast  Level Estimated
07:53AM 35.5721 107.9817 54° Northeast  Level Estimated
07:54AM 35.6307 108.0805 54° Northeast  Level Estimated
07:55AM 35.6892 108.1793 54° Northeast  Level Estimated
07:56AM 35.7476 108.2784 54° Northeast  Level Estimated
07:57AM 35.8059 108.3775 54° Northeast  Level Estimated
07:58AM 35.8642 108.4768 54° Northeast  Level Estimated
07:59AM 35.9224 108.5763 54° Northeast  Level Estimated
08:00AM 35.9805 108.6759 54° Northeast  Level Estimated
08:01AM 36.0385 108.7757 54° Northeast  Level Estimated
08:02AM 36.0964 108.8756 54° Northeast  Level Estimated
08:03AM 36.1543 108.9756 54° Northeast  Level Estimated
08:04AM 36.2120 109.0758 54° Northeast  Level Estimated
08:05AM 36.2697 109.1762 54° Northeast  Level Estimated
08:06AM 36.3273 109.2767 55° Northeast  Level Estimated
08:07AM 36.3848 109.3773 55° Northeast  Level Estimated
08:08AM 36.4422 109.4781 55° Northeast  Level Estimated
08:09AM 36.4996 109.5790 55° Northeast  Level Estimated
08:10AM 36.5568 109.6801 55° Northeast  Level Estimated
08:11AM 36.6140 109.7814 55° Northeast  Level Estimated
08:12AM 36.6711 109.8828 55° Northeast  Level Estimated
08:13AM 36.7281 109.9843 55° Northeast  Level Estimated
08:14AM 36.7850 110.0860 55° Northeast  Level Estimated
08:15AM 36.8418 110.1878 55° Northeast  Level Estimated
08:16AM 36.8985 110.2898 55° Northeast  Level Estimated
08:17AM 36.9552 110.3920 55° Northeast  Level Estimated
08:18AM 37.0118 110.4943 55° Northeast  Level Estimated
08:19AM 37.0682 110.5967 55° Northeast  Level Estimated
08:20AM 37.1246 110.6993 55° Northeast  Level Estimated
08:21AM 37.1809 110.8021 55° Northeast  Level Estimated
08:22AM 37.2371 110.9050 56° Northeast  Level Estimated
08:23AM 37.2933 111.0080 56° Northeast  Level Estimated
08:24AM 37.3493 111.1113 56° Northeast  Level Estimated
08:25AM 37.4052 111.2146 56° Northeast  Level Estimated
08:26AM 37.4611 111.3181 56° Northeast  Level Estimated
08:27AM 37.5168 111.4218 56° Northeast  Level Estimated
08:28AM 37.5725 111.5257 56° Northeast  Level Estimated
08:29AM 37.6281 111.6296 56° Northeast  Level Estimated
08:30AM 37.6836 111.7338 56° Northeast  Level Estimated
08:31AM 37.7390 111.8381 56° Northeast  Level Estimated
08:32AM 37.7943 111.9425 56° Northeast  Level Estimated
08:33AM 37.8495 112.0471 56° Northeast  Level Estimated
08:34AM 37.9046 112.1519 56° Northeast  Level Estimated
08:35AM 37.9596 112.2568 56° Northeast  Level Estimated
08:36AM 38.0146 112.3619 56° Northeast  Level Estimated
08:37AM 38.0694 112.4672 56° Northeast  Level Estimated
08:38AM 38.1241 112.5726 57° Northeast  Level Estimated
08:39AM 38.1788 112.6781 57° Northeast  Level Estimated
08:40AM 38.2333 112.7838 57° Northeast  Level Estimated
08:41AM 38.2878 112.8897 57° Northeast  Level Estimated
08:42AM 38.3422 112.9957 57° Northeast  Level Estimated
08:43AM 38.3964 113.1019 57° Northeast  Level Estimated
08:44AM 38.4506 113.2083 57° Northeast  Level Estimated
08:45AM 38.5047 113.3148 57° Northeast  Level Estimated
08:46AM 38.5587 113.4215 57° Northeast  Level Estimated
08:47AM 38.6126 113.5283 57° Northeast  Level Estimated
08:48AM 38.6663 113.6353 57° Northeast  Level Estimated
08:49AM 38.7200 113.7424 57° Northeast  Level Estimated
08:50AM 38.7736 113.8497 57° Northeast  Level Estimated
08:51AM 38.8271 113.9572 57° Northeast  Level Estimated
08:52AM 38.8805 114.0648 57° Northeast  Level Estimated
08:52AM 38.5918 115.3157 57° Northeast 388 447 19,700  Level FlightAware ADS-B
08:52AM 38.6208 115.3742 57° Northeast 388 447 19,400 -720 Descending FlightAware ADS-B
08:53AM 38.6785 115.4896 57° Northeast 373 429 18,700 -480 Descending FlightAware ADS-B
08:54AM 38.7075 115.5480 57° Northeast 372 428 18,700  Level FlightAware ADS-B
08:54AM 38.7345 115.6029 57° Northeast 367 422 18,700  Level FlightAware ADS-B
08:55AM 38.7603 115.6550 57° Northeast 363 418 18,700  Level FlightAware ADS-B
08:55AM 38.7891 115.7133 57° Northeast 363 418 18,700  Level FlightAware ADS-B
08:56AM 38.8154 115.7667 57° Northeast 362 417 18,700  Level FlightAware ADS-B
08:56AM 38.8418 115.8202 57° Northeast 362 417 18,700  Level FlightAware ADS-B
08:57AM 38.8690 115.8755 57° Northeast 362 417 18,700  Level FlightAware ADS-B
08:57AM 38.8965 115.9316 57° Northeast 363 418 18,700  Level FlightAware ADS-B
08:58AM 38.9123 115.9639 58° Northeast 360 414 18,700  Level FlightAware ADS-B
08:58AM 38.9492 116.0395 58° Northeast 359 413 18,700  Level FlightAware ADS-B
08:59AM 38.9750 116.0924 58° Northeast 364 419 18,700  Level FlightAware ADS-B
08:59AM 39.0027 116.1491 58° Northeast 360 414 18,700  Level FlightAware ADS-B
09:00AM 39.0292 116.2035 58° Northeast 361 415 18,700  Level FlightAware ADS-B
09:00AM 39.0535 116.2534 58° Northeast 360 414 18,700  Level FlightAware ADS-B
09:01AM 39.1089 116.3678 58° Northeast 369 425 18,700  Level FlightAware ADS-B
09:02AM 39.1291 116.4074 47° Northeast 380 437 18,700  Level FlightAware ADS-B
09:02AM 39.1557 116.4344 31° Northeast 405 466 18,700  Level FlightAware ADS-B
09:03AM 39.2055 116.4720 30° Northeast 423 487 18,700  Level FlightAware ADS-B
09:03AM 39.2561 116.5106 30° Northeast 425 489 18,700  Level FlightAware ADS-B
09:04AM 39.3067 116.5491 30° Northeast 423 487 18,700  Level FlightAware ADS-B
09:04AM 39.3568 116.5876 30° Northeast 420 483 18,700  Level FlightAware ADS-B
09:05AM 39.4081 116.6265 27° Northeast 423 487 18,700  Level FlightAware ADS-B
09:05AM 39.4448 116.6413 North 430 495 18,700  Level FlightAware ADS-B
09:06AM 39.5226 116.6540 North 428 493 18,700 -360 Level FlightAware ADS-B
09:06AM 39.5831 116.6638 North 425 489 18,300 -960 Descending FlightAware ADS-B
09:07AM 39.6606 116.6755 North 422 486 17,600 -1,080 Descending FlightAware ADS-B
09:07AM 39.6804 116.6746 356° North 414 476 17,400 -900 Descending FlightAware ADS-B
09:07AM 39.7347 116.6651 349° North 391 450 17,000 -540 Descending FlightAware ADS-B
09:08AM 39.8186 116.6428 350° North 346 398 16,700 -420 Descending FlightAware ADS-B
09:09AM 39.8650 116.6312 350° North 322 371 16,500 -600 Descending FlightAware ADS-B
09:09AM 39.9073 116.6206 350° North 312 359 16,100 -780 Descending FlightAware ADS-B
09:10AM 39.9576 116.6081 350° North 311 358 15,700 -960 Descending FlightAware ADS-B
09:10AM 40.0001 116.5979 350° North 311 358 15,100 -1,200 Descending FlightAware ADS-B
09:11AM 40.0426 116.5873 349° North 309 356 14,500 -1,380 Descending FlightAware ADS-B
09:11AM 40.0554 116.5820 337° Northwest 307 353 14,200 -1,500 Descending FlightAware ADS-B
09:11AM 40.0674 116.5717 322° Northwest 303 349 14,000 -900 Descending FlightAware ADS-B
09:11AM 40.0765 116.5573 303° West 293 337 13,900 -600 Descending FlightAware ADS-B
09:11AM 40.0814 116.5427 291° West 288 331 13,800 -1,260 Descending FlightAware ADS-B
09:12AM 40.0919 116.5018 288° West 293 337 13,100 -1,680 Descending FlightAware ADS-B
09:13AM 40.1104 116.4226 287° West 302 348 11,900 -1,140 Descending FlightAware ADS-B
09:13AM 40.1211 116.3772 288° West 278 320 11,800 -840 Descending FlightAware ADS-B
09:13AM 40.1312 116.3425 302° West 285 328 11,200 -2,040 Descending FlightAware ADS-B
09:14AM 40.1408 116.3287 320° Northwest 295 339 10,800 -1,740 Descending FlightAware ADS-B
09:14AM 40.1528 116.3192 334° Northwest 298 343 10,600 -780 Descending FlightAware ADS-B
09:14AM 40.1897 116.2977 337° Northwest 282 325 10,300 -660 Descending FlightAware ADS-B
09:15AM 40.2186 116.2814 337° Northwest 271 312 10,000 -900 Descending FlightAware ADS-B
09:15AM 40.2334 116.2731 337° Northwest 269 310 9,700 -1,500 Descending FlightAware ADS-B
09:15AM 40.2535 116.2616 337° Northwest 272 313 9,300 -1,500 Descending FlightAware ADS-B
09:15AM 40.2704 116.2519 337° Northwest 270 311 9,000 -1,440 Descending FlightAware ADS-B
09:16AM 40.2861 116.2429 336° Northwest 271 312 8,600 -1,560 Descending FlightAware ADS-B
09:16AM 40.3043 116.2322 336° Northwest 273 314 8,200 -1,200 Descending FlightAware ADS-B
09:16AM 40.3165 116.2256 342° North 270 311 8,100 -900 Descending FlightAware ADS-B
09:16AM 40.3227 116.2239 350° North 269 310 8,000 -1,140 Descending FlightAware ADS-B
09:16AM 40.3261 116.2235 North 267 307 7,900 -840 Descending FlightAware ADS-B
09:16AM 40.3400 116.2259 15° North 262 302 7,800 -900 Descending FlightAware ADS-B
09:17AM 40.3459 116.2293 25° Northeast 258 297 7,700 -1,200 Descending FlightAware ADS-B
09:17AM 40.3507 116.2335 32° Northeast 256 295 7,600 -600 Descending FlightAware ADS-B
09:17AM 40.3547 116.2383 44° Northeast 250 288 7,600 -840 Level FlightAware ADS-B
09:17AM 40.3610 116.2512 56° Northeast 244 281 7,400 -1,200 Descending FlightAware ADS-B
09:17AM 40.3625 116.2573 74° East 235 270 7,300 -600 Descending FlightAware ADS-B
09:17AM 40.3658 116.2780 79° East 227 261 7,200 -600 Descending FlightAware ADS-B
09:17AM 40.3684 116.2963 79° East 218 251 7,000 -840 Descending FlightAware ADS-B
09:18AM 40.3716 116.3182 79° East 214 246 6,800 -1,080 Descending FlightAware ADS-B
09:18AM 40.3740 116.3353 79° East 214 246 6,500 -1,200 Descending FlightAware ADS-B
09:18AM 40.3753 116.3448 79° East 214 246 6,200 -1,080 Descending FlightAware ADS-B
09:18AM 40.3794 116.3724 78° East 212 244 6,000 -900 Descending FlightAware ADS-B
09:19AM 40.3819 116.3898 78° East 212 244 5,800 -1,140 Descending FlightAware ADS-B
09:19AM 40.3870 116.4250 79° East 211 243 5,200 -1,020 Descending FlightAware ADS-B
09:19AM 40.3895 116.4421 79° East 208 239 5,100 -660 Descending FlightAware ADS-B
09:20AM 40.3922 116.4616 79° East 215 247 4,900 -840 Descending FlightAware ADS-B
09:20AM 40.3842 116.4954 136° Southeast 196 226 4,500 -600 Descending FlightAware ADS-B
09:21AM 40.3389 116.5311 165° South 180 207 4,000 -480 Descending FlightAware ADS-B
09:22AM 40.3193 116.5356 173° South 174 200 3,900 -300 Descending FlightAware ADS-B
09:24AM 40.1229 116.5758 171° South  Level Estimated
09:25AM 40.0801 116.5846 171° South  Level Estimated
09:26AM 40.0801 116.5846 North  Level Estimated
09:27AM 40.0801 116.5846 North  Level Estimated
09:28AM 40.0801 116.5846 North  Level Estimated